sensor_id;sensor_type;location;lat;lon;timestamp;P1;durP1;ratioP1;P2;durP2;ratioP2
22219;SDS011;11279;48.364;10.904;2024-03-08T00:00:51;29.57;;;16.50;;
22219;SDS011;11279;48.364;10.904;2024-03-08T00:01:52;25.77;;;15.17;;
22219;SDS011;11279;48.364;10.904;2024-03-08T00:02:52;26.60;;;15.10;;
22219;SDS011;11279;48.364;10.904;2024-03-08T00:03:54;30.52;;;16.27;;
22219;SDS011;11279;48.364;10.904;2024-03-08T00:04:54;27.57;;;16.00;;
22219;SDS011;11279;48.364;10.904;2024-03-08T00:05:54;90.90;;;16.50;;
22219;SDS011;11279;48.364;10.904;2024-03-08T00:06:56;29.02;;;16.30;;
22219;SDS011;11279;48.364;10.904;2024-03-08T00:07:56;29.30;;;15.17;;
22219;SDS011;11279;48.364;10.904;2024-03-08T00:08:57;72.70;;;17.10;;
22219;SDS011;11279;48.364;10.904;2024-03-08T00:09:57;26.97;;;15.13;;
22219;SDS011;11279;48.364;10.904;2024-03-08T00:10:57;28.27;;;16.53;;
22219;SDS011;11279;48.364;10.904;2024-03-08T00:11:58;26.57;;;15.20;;
22219;SDS011;11279;48.364;10.904;2024-03-08T00:12:59;29.80;;;16.13;;
22219;SDS011;11279;48.364;10.904;2024-03-08T00:13:59;28.27;;;16.37;;
22219;SDS011;11279;48.364;10.904;2024-03-08T00:15:00;27.77;;;15.07;;
22219;SDS011;11279;48.364;10.904;2024-03-08T00:16:00;26.93;;;15.07;;
22219;SDS011;11279;48.364;10.904;2024-03-08T00:17:00;30.07;;;16.80;;
22219;SDS011;11279;48.364;10.904;2024-03-08T00:18:01;28.40;;;15.87;;
22219;SDS011;11279;48.364;10.904;2024-03-08T00:19:01;28.47;;;15.53;;
22219;SDS011;11279;48.364;10.904;2024-03-08T00:20:02;28.53;;;16.03;;
22219;SDS011;11279;48.364;10.904;2024-03-08T00:21:08;27.30;;;15.93;;
22219;SDS011;11279;48.364;10.904;2024-03-08T00:22:09;28.37;;;15.70;;
22219;SDS011;11279;48.364;10.904;2024-03-08T00:23:11;28.77;;;16.05;;
22219;SDS011;11279;48.364;10.904;2024-03-08T00:24:12;26.37;;;14.90;;
22219;SDS011;11279;48.364;10.904;2024-03-08T00:25:12;113.13;;;17.10;;
22219;SDS011;11279;48.364;10.904;2024-03-08T00:26:13;28.57;;;15.37;;
22219;SDS011;11279;48.364;10.904;2024-03-08T00:27:13;29.50;;;15.23;;
22219;SDS011;11279;48.364;10.904;2024-03-08T00:28:14;28.43;;;15.43;;
22219;SDS011;11279;48.364;10.904;2024-03-08T00:29:17;27.13;;;15.18;;
22219;SDS011;11279;48.364;10.904;2024-03-08T00:30:17;28.20;;;15.40;;
22219;SDS011;11279;48.364;10.904;2024-03-08T00:31:18;29.23;;;16.90;;
22219;SDS011;11279;48.364;10.904;2024-03-08T00:32:18;30.30;;;16.90;;
22219;SDS011;11279;48.364;10.904;2024-03-08T00:33:18;28.30;;;15.90;;
22219;SDS011;11279;48.364;10.904;2024-03-08T00:34:19;28.50;;;16.23;;
22219;SDS011;11279;48.364;10.904;2024-03-08T00:35:19;27.80;;;15.53;;
22219;SDS011;11279;48.364;10.904;2024-03-08T00:36:20;29.80;;;15.03;;
22219;SDS011;11279;48.364;10.904;2024-03-08T00:37:20;29.77;;;16.37;;
22219;SDS011;11279;48.364;10.904;2024-03-08T00:38:23;29.60;;;15.82;;
22219;SDS011;11279;48.364;10.904;2024-03-08T00:39:24;27.37;;;16.43;;
22219;SDS011;11279;48.364;10.904;2024-03-08T00:40:25;184.18;;;20.63;;
22219;SDS011;11279;48.364;10.904;2024-03-08T00:41:26;27.17;;;15.67;;
22219;SDS011;11279;48.364;10.904;2024-03-08T00:42:26;72.77;;;16.27;;
22219;SDS011;11279;48.364;10.904;2024-03-08T00:43:26;30.37;;;16.27;;
22219;SDS011;11279;48.364;10.904;2024-03-08T00:44:27;29.70;;;15.60;;
22219;SDS011;11279;48.364;10.904;2024-03-08T00:45:27;27.10;;;15.10;;
22219;SDS011;11279;48.364;10.904;2024-03-08T00:46:28;28.77;;;16.83;;
22219;SDS011;11279;48.364;10.904;2024-03-08T00:47:28;27.60;;;15.67;;
22219;SDS011;11279;48.364;10.904;2024-03-08T00:48:29;80.80;;;16.63;;
22219;SDS011;11279;48.364;10.904;2024-03-08T00:49:31;27.17;;;14.55;;
22219;SDS011;11279;48.364;10.904;2024-03-08T00:50:31;28.90;;;16.50;;
22219;SDS011;11279;48.364;10.904;2024-03-08T00:51:31;31.40;;;16.70;;
22219;SDS011;11279;48.364;10.904;2024-03-08T00:52:32;30.23;;;15.40;;
22219;SDS011;11279;48.364;10.904;2024-03-08T00:53:34;27.30;;;14.70;;
22219;SDS011;11279;48.364;10.904;2024-03-08T00:54:35;28.60;;;16.07;;
22219;SDS011;11279;48.364;10.904;2024-03-08T00:55:38;28.67;;;15.02;;
22219;SDS011;11279;48.364;10.904;2024-03-08T00:56:38;31.97;;;16.53;;
22219;SDS011;11279;48.364;10.904;2024-03-08T00:57:39;27.37;;;14.60;;
22219;SDS011;11279;48.364;10.904;2024-03-08T00:58:39;28.23;;;15.00;;
22219;SDS011;11279;48.364;10.904;2024-03-08T00:59:40;29.97;;;16.20;;
22219;SDS011;11279;48.364;10.904;2024-03-08T01:00:40;25.60;;;14.77;;
22219;SDS011;11279;48.364;10.904;2024-03-08T01:01:41;28.83;;;15.50;;
22219;SDS011;11279;48.364;10.904;2024-03-08T01:02:41;27.30;;;15.40;;
22219;SDS011;11279;48.364;10.904;2024-03-08T01:03:45;28.77;;;15.57;;
22219;SDS011;11279;48.364;10.904;2024-03-08T01:04:45;26.60;;;15.85;;
22219;SDS011;11279;48.364;10.904;2024-03-08T01:05:47;28.10;;;15.45;;
22219;SDS011;11279;48.364;10.904;2024-03-08T01:06:47;26.30;;;15.23;;
22219;SDS011;11279;48.364;10.904;2024-03-08T01:07:48;28.93;;;16.20;;
22219;SDS011;11279;48.364;10.904;2024-03-08T01:08:49;30.52;;;16.67;;
22219;SDS011;11279;48.364;10.904;2024-03-08T01:09:51;72.47;;;17.02;;
22219;SDS011;11279;48.364;10.904;2024-03-08T01:10:52;29.97;;;15.83;;
22219;SDS011;11279;48.364;10.904;2024-03-08T01:11:53;27.90;;;15.80;;
22219;SDS011;11279;48.364;10.904;2024-03-08T01:12:57;242.13;;;23.00;;
22219;SDS011;11279;48.364;10.904;2024-03-08T01:13:59;27.95;;;15.90;;
22219;SDS011;11279;48.364;10.904;2024-03-08T01:15:00;27.23;;;15.07;;
22219;SDS011;11279;48.364;10.904;2024-03-08T01:16:00;27.83;;;15.70;;
22219;SDS011;11279;48.364;10.904;2024-03-08T01:17:00;57.47;;;16.33;;
22219;SDS011;11279;48.364;10.904;2024-03-08T01:18:01;30.60;;;16.57;;
22219;SDS011;11279;48.364;10.904;2024-03-08T01:19:01;29.37;;;16.50;;
22219;SDS011;11279;48.364;10.904;2024-03-08T01:20:04;74.80;;;19.92;;
22219;SDS011;11279;48.364;10.904;2024-03-08T01:21:04;30.90;;;16.80;;
22219;SDS011;11279;48.364;10.904;2024-03-08T01:22:05;27.60;;;15.57;;
22219;SDS011;11279;48.364;10.904;2024-03-08T01:23:05;28.07;;;16.20;;
22219;SDS011;11279;48.364;10.904;2024-03-08T01:24:07;29.90;;;16.90;;
22219;SDS011;11279;48.364;10.904;2024-03-08T01:25:07;30.27;;;16.47;;
22219;SDS011;11279;48.364;10.904;2024-03-08T01:26:08;28.87;;;15.57;;
22219;SDS011;11279;48.364;10.904;2024-03-08T01:27:09;29.33;;;16.57;;
22219;SDS011;11279;48.364;10.904;2024-03-08T01:28:09;30.60;;;16.90;;
22219;SDS011;11279;48.364;10.904;2024-03-08T01:29:10;28.53;;;15.80;;
22219;SDS011;11279;48.364;10.904;2024-03-08T01:30:10;27.83;;;15.53;;
22219;SDS011;11279;48.364;10.904;2024-03-08T01:31:10;28.87;;;16.73;;
22219;SDS011;11279;48.364;10.904;2024-03-08T01:32:12;31.77;;;16.95;;
22219;SDS011;11279;48.364;10.904;2024-03-08T01:33:12;30.37;;;17.33;;
22219;SDS011;11279;48.364;10.904;2024-03-08T01:34:13;29.65;;;16.42;;
22219;SDS011;11279;48.364;10.904;2024-03-08T01:35:14;29.63;;;16.70;;
22219;SDS011;11279;48.364;10.904;2024-03-08T01:36:14;27.13;;;16.90;;
22219;SDS011;11279;48.364;10.904;2024-03-08T01:37:15;32.10;;;16.40;;
22219;SDS011;11279;48.364;10.904;2024-03-08T01:38:16;28.03;;;16.63;;
22219;SDS011;11279;48.364;10.904;2024-03-08T01:39:16;26.67;;;14.90;;
22219;SDS011;11279;48.364;10.904;2024-03-08T01:40:17;29.67;;;17.03;;
22219;SDS011;11279;48.364;10.904;2024-03-08T01:41:17;29.40;;;16.67;;
22219;SDS011;11279;48.364;10.904;2024-03-08T01:42:18;28.43;;;15.63;;
22219;SDS011;11279;48.364;10.904;2024-03-08T01:43:22;32.10;;;18.17;;
22219;SDS011;11279;48.364;10.904;2024-03-08T01:44:25;29.52;;;16.02;;
22219;SDS011;11279;48.364;10.904;2024-03-08T01:45:25;28.13;;;16.30;;
22219;SDS011;11279;48.364;10.904;2024-03-08T01:46:25;28.90;;;16.63;;
22219;SDS011;11279;48.364;10.904;2024-03-08T01:47:28;27.73;;;16.13;;
22219;SDS011;11279;48.364;10.904;2024-03-08T01:48:29;30.17;;;16.27;;
22219;SDS011;11279;48.364;10.904;2024-03-08T01:49:30;28.48;;;15.85;;
22219;SDS011;11279;48.364;10.904;2024-03-08T01:50:30;28.20;;;15.97;;
22219;SDS011;11279;48.364;10.904;2024-03-08T01:51:31;42.67;;;17.13;;
22219;SDS011;11279;48.364;10.904;2024-03-08T01:52:32;31.13;;;17.37;;
22219;SDS011;11279;48.364;10.904;2024-03-08T01:53:33;31.23;;;17.45;;
22219;SDS011;11279;48.364;10.904;2024-03-08T01:54:34;30.77;;;16.88;;
22219;SDS011;11279;48.364;10.904;2024-03-08T01:55:36;31.50;;;17.40;;
22219;SDS011;11279;48.364;10.904;2024-03-08T01:56:37;30.23;;;16.80;;
22219;SDS011;11279;48.364;10.904;2024-03-08T01:57:38;31.00;;;16.92;;
22219;SDS011;11279;48.364;10.904;2024-03-08T01:58:38;29.90;;;17.23;;
22219;SDS011;11279;48.364;10.904;2024-03-08T01:59:42;31.02;;;16.98;;
22219;SDS011;11279;48.364;10.904;2024-03-08T02:00:44;29.15;;;16.65;;
22219;SDS011;11279;48.364;10.904;2024-03-08T02:01:45;30.15;;;16.13;;
22219;SDS011;11279;48.364;10.904;2024-03-08T02:02:45;29.10;;;16.63;;
22219;SDS011;11279;48.364;10.904;2024-03-08T02:03:46;31.10;;;17.33;;
22219;SDS011;11279;48.364;10.904;2024-03-08T02:04:47;27.33;;;15.93;;
22219;SDS011;11279;48.364;10.904;2024-03-08T02:05:47;31.20;;;17.30;;
22219;SDS011;11279;48.364;10.904;2024-03-08T02:06:48;29.77;;;16.67;;
22219;SDS011;11279;48.364;10.904;2024-03-08T02:07:49;31.00;;;17.27;;
22219;SDS011;11279;48.364;10.904;2024-03-08T02:08:49;30.47;;;16.87;;
22219;SDS011;11279;48.364;10.904;2024-03-08T02:09:50;30.37;;;16.23;;
22219;SDS011;11279;48.364;10.904;2024-03-08T02:10:51;31.03;;;17.07;;
22219;SDS011;11279;48.364;10.904;2024-03-08T02:11:51;32.77;;;17.40;;
22219;SDS011;11279;48.364;10.904;2024-03-08T02:12:52;30.83;;;16.60;;
22219;SDS011;11279;48.364;10.904;2024-03-08T02:13:52;34.23;;;17.83;;
22219;SDS011;11279;48.364;10.904;2024-03-08T02:14:53;33.03;;;17.47;;
22219;SDS011;11279;48.364;10.904;2024-03-08T02:15:54;30.42;;;16.38;;
22219;SDS011;11279;48.364;10.904;2024-03-08T02:16:59;32.67;;;17.92;;
22219;SDS011;11279;48.364;10.904;2024-03-08T02:18:00;32.75;;;17.42;;
22219;SDS011;11279;48.364;10.904;2024-03-08T02:19:01;32.00;;;17.33;;
22219;SDS011;11279;48.364;10.904;2024-03-08T02:20:01;30.90;;;18.17;;
22219;SDS011;11279;48.364;10.904;2024-03-08T02:21:04;31.10;;;17.52;;
22219;SDS011;11279;48.364;10.904;2024-03-08T02:22:05;33.33;;;17.42;;
22219;SDS011;11279;48.364;10.904;2024-03-08T02:23:06;30.40;;;16.98;;
22219;SDS011;11279;48.364;10.904;2024-03-08T02:24:06;34.40;;;18.47;;
22219;SDS011;11279;48.364;10.904;2024-03-08T02:25:07;30.23;;;18.23;;
22219;SDS011;11279;48.364;10.904;2024-03-08T02:26:08;60.88;;;18.75;;
22219;SDS011;11279;48.364;10.904;2024-03-08T02:27:09;34.20;;;18.23;;
22219;SDS011;11279;48.364;10.904;2024-03-08T02:28:12;31.55;;;17.33;;
22219;SDS011;11279;48.364;10.904;2024-03-08T02:29:12;34.25;;;17.67;;
22219;SDS011;11279;48.364;10.904;2024-03-08T02:30:14;32.20;;;17.98;;
22219;SDS011;11279;48.364;10.904;2024-03-08T02:31:16;65.63;;;19.08;;
22219;SDS011;11279;48.364;10.904;2024-03-08T02:32:16;32.90;;;18.00;;
22219;SDS011;11279;48.364;10.904;2024-03-08T02:33:18;32.15;;;17.80;;
22219;SDS011;11279;48.364;10.904;2024-03-08T02:34:18;31.73;;;18.53;;
22219;SDS011;11279;48.364;10.904;2024-03-08T02:35:20;35.88;;;18.27;;
22219;SDS011;11279;48.364;10.904;2024-03-08T02:36:20;29.43;;;16.83;;
22219;SDS011;11279;48.364;10.904;2024-03-08T02:37:21;40.75;;;19.33;;
22219;SDS011;11279;48.364;10.904;2024-03-08T02:38:22;33.87;;;17.73;;
22219;SDS011;11279;48.364;10.904;2024-03-08T02:39:24;67.07;;;17.90;;
22219;SDS011;11279;48.364;10.904;2024-03-08T02:40:24;34.00;;;18.63;;
22219;SDS011;11279;48.364;10.904;2024-03-08T02:41:25;33.53;;;18.30;;
22219;SDS011;11279;48.364;10.904;2024-03-08T02:42:25;32.53;;;17.73;;
22219;SDS011;11279;48.364;10.904;2024-03-08T02:43:25;29.60;;;17.50;;
22219;SDS011;11279;48.364;10.904;2024-03-08T02:44:26;35.13;;;18.70;;
22219;SDS011;11279;48.364;10.904;2024-03-08T02:45:26;35.37;;;19.17;;
22219;SDS011;11279;48.364;10.904;2024-03-08T02:46:27;34.77;;;19.27;;
22219;SDS011;11279;48.364;10.904;2024-03-08T02:47:27;34.97;;;18.67;;
22219;SDS011;11279;48.364;10.904;2024-03-08T02:48:28;33.33;;;18.35;;
22219;SDS011;11279;48.364;10.904;2024-03-08T02:49:29;33.77;;;18.97;;
22219;SDS011;11279;48.364;10.904;2024-03-08T02:50:29;33.17;;;18.43;;
22219;SDS011;11279;48.364;10.904;2024-03-08T02:51:30;35.43;;;18.90;;
22219;SDS011;11279;48.364;10.904;2024-03-08T02:52:31;35.83;;;18.77;;
22219;SDS011;11279;48.364;10.904;2024-03-08T02:53:31;34.47;;;17.93;;
22219;SDS011;11279;48.364;10.904;2024-03-08T02:54:31;35.70;;;18.67;;
22219;SDS011;11279;48.364;10.904;2024-03-08T02:55:32;34.03;;;19.33;;
22219;SDS011;11279;48.364;10.904;2024-03-08T02:56:35;34.63;;;18.92;;
22219;SDS011;11279;48.364;10.904;2024-03-08T02:57:36;34.10;;;18.80;;
22219;SDS011;11279;48.364;10.904;2024-03-08T02:58:37;37.30;;;20.23;;
22219;SDS011;11279;48.364;10.904;2024-03-08T02:59:37;35.97;;;19.10;;
22219;SDS011;11279;48.364;10.904;2024-03-08T03:00:40;30.52;;;17.80;;
22219;SDS011;11279;48.364;10.904;2024-03-08T03:01:41;36.65;;;18.90;;
22219;SDS011;11279;48.364;10.904;2024-03-08T03:02:41;33.03;;;18.03;;
22219;SDS011;11279;48.364;10.904;2024-03-08T03:03:42;33.85;;;18.42;;
22219;SDS011;11279;48.364;10.904;2024-03-08T03:04:43;209.37;;;24.23;;
22219;SDS011;11279;48.364;10.904;2024-03-08T03:05:43;33.67;;;18.20;;
22219;SDS011;11279;48.364;10.904;2024-03-08T03:06:44;34.30;;;18.93;;
22219;SDS011;11279;48.364;10.904;2024-03-08T03:07:44;33.53;;;18.77;;
22219;SDS011;11279;48.364;10.904;2024-03-08T03:08:45;33.17;;;18.90;;
22219;SDS011;11279;48.364;10.904;2024-03-08T03:09:45;33.90;;;18.43;;
22219;SDS011;11279;48.364;10.904;2024-03-08T03:10:46;31.67;;;17.67;;
22219;SDS011;11279;48.364;10.904;2024-03-08T03:11:46;40.07;;;20.13;;
22219;SDS011;11279;48.364;10.904;2024-03-08T03:12:47;33.40;;;18.63;;
22219;SDS011;11279;48.364;10.904;2024-03-08T03:13:50;36.83;;;19.08;;
22219;SDS011;11279;48.364;10.904;2024-03-08T03:14:51;35.43;;;19.27;;
22219;SDS011;11279;48.364;10.904;2024-03-08T03:15:52;35.57;;;19.17;;
22219;SDS011;11279;48.364;10.904;2024-03-08T03:16:52;34.87;;;20.10;;
22219;SDS011;11279;48.364;10.904;2024-03-08T03:17:53;71.30;;;18.70;;
22219;SDS011;11279;48.364;10.904;2024-03-08T03:18:53;35.20;;;19.53;;
22219;SDS011;11279;48.364;10.904;2024-03-08T03:19:54;32.83;;;19.17;;
22219;SDS011;11279;48.364;10.904;2024-03-08T03:20:55;38.72;;;19.63;;
22219;SDS011;11279;48.364;10.904;2024-03-08T03:21:56;37.47;;;20.47;;
22219;SDS011;11279;48.364;10.904;2024-03-08T03:22:57;33.83;;;18.50;;
22219;SDS011;11279;48.364;10.904;2024-03-08T03:23:57;34.97;;;19.57;;
22219;SDS011;11279;48.364;10.904;2024-03-08T03:24:59;40.40;;;20.58;;
22219;SDS011;11279;48.364;10.904;2024-03-08T03:26:01;32.53;;;19.23;;
22219;SDS011;11279;48.364;10.904;2024-03-08T03:27:02;37.33;;;20.27;;
22219;SDS011;11279;48.364;10.904;2024-03-08T03:28:10;37.70;;;19.30;;
22219;SDS011;11279;48.364;10.904;2024-03-08T03:29:14;34.05;;;19.40;;
22219;SDS011;11279;48.364;10.904;2024-03-08T03:30:16;36.47;;;20.10;;
22219;SDS011;11279;48.364;10.904;2024-03-08T03:31:21;39.63;;;20.10;;
22219;SDS011;11279;48.364;10.904;2024-03-08T03:32:24;36.63;;;20.42;;
22219;SDS011;11279;48.364;10.904;2024-03-08T03:33:24;38.17;;;20.07;;
22219;SDS011;11279;48.364;10.904;2024-03-08T03:34:25;36.27;;;20.47;;
22219;SDS011;11279;48.364;10.904;2024-03-08T03:35:26;36.70;;;20.77;;
22219;SDS011;11279;48.364;10.904;2024-03-08T03:36:27;37.17;;;21.13;;
22219;SDS011;11279;48.364;10.904;2024-03-08T03:37:28;37.90;;;20.70;;
22219;SDS011;11279;48.364;10.904;2024-03-08T03:38:28;37.03;;;21.83;;
22219;SDS011;11279;48.364;10.904;2024-03-08T03:39:29;41.77;;;21.80;;
22219;SDS011;11279;48.364;10.904;2024-03-08T03:40:34;37.38;;;19.83;;
22219;SDS011;11279;48.364;10.904;2024-03-08T03:41:35;39.13;;;21.73;;
22219;SDS011;11279;48.364;10.904;2024-03-08T03:42:35;36.43;;;20.30;;
22219;SDS011;11279;48.364;10.904;2024-03-08T03:43:38;35.67;;;20.65;;
22219;SDS011;11279;48.364;10.904;2024-03-08T03:44:38;38.70;;;21.70;;
22219;SDS011;11279;48.364;10.904;2024-03-08T03:45:39;37.27;;;21.17;;
22219;SDS011;11279;48.364;10.904;2024-03-08T03:46:41;39.03;;;20.67;;
22219;SDS011;11279;48.364;10.904;2024-03-08T03:47:44;38.72;;;21.20;;
22219;SDS011;11279;48.364;10.904;2024-03-08T03:48:44;40.77;;;21.90;;
22219;SDS011;11279;48.364;10.904;2024-03-08T03:49:45;40.80;;;21.97;;
22219;SDS011;11279;48.364;10.904;2024-03-08T03:50:45;36.97;;;21.87;;
22219;SDS011;11279;48.364;10.904;2024-03-08T03:51:46;39.47;;;20.87;;
22219;SDS011;11279;48.364;10.904;2024-03-08T03:52:47;38.70;;;21.33;;
22219;SDS011;11279;48.364;10.904;2024-03-08T03:53:47;40.37;;;21.00;;
22219;SDS011;11279;48.364;10.904;2024-03-08T03:54:48;43.23;;;22.80;;
22219;SDS011;11279;48.364;10.904;2024-03-08T03:55:49;39.47;;;20.70;;
22219;SDS011;11279;48.364;10.904;2024-03-08T03:56:49;38.97;;;21.60;;
22219;SDS011;11279;48.364;10.904;2024-03-08T03:57:52;36.53;;;21.23;;
22219;SDS011;11279;48.364;10.904;2024-03-08T03:58:53;37.27;;;21.43;;
22219;SDS011;11279;48.364;10.904;2024-03-08T03:59:53;40.73;;;21.33;;
22219;SDS011;11279;48.364;10.904;2024-03-08T04:00:54;37.77;;;20.30;;
22219;SDS011;11279;48.364;10.904;2024-03-08T04:01:54;39.03;;;21.80;;
22219;SDS011;11279;48.364;10.904;2024-03-08T04:02:55;42.87;;;21.90;;
22219;SDS011;11279;48.364;10.904;2024-03-08T04:03:58;366.52;;;28.60;;
22219;SDS011;11279;48.364;10.904;2024-03-08T04:04:59;41.50;;;22.07;;
22219;SDS011;11279;48.364;10.904;2024-03-08T04:05:59;79.87;;;22.20;;
22219;SDS011;11279;48.364;10.904;2024-03-08T04:07:01;40.40;;;22.38;;
22219;SDS011;11279;48.364;10.904;2024-03-08T04:08:02;38.10;;;22.13;;
22219;SDS011;11279;48.364;10.904;2024-03-08T04:09:03;40.70;;;22.63;;
22219;SDS011;11279;48.364;10.904;2024-03-08T04:10:05;40.35;;;21.98;;
22219;SDS011;11279;48.364;10.904;2024-03-08T04:11:07;41.78;;;21.30;;
22219;SDS011;11279;48.364;10.904;2024-03-08T04:12:08;39.72;;;22.13;;
22219;SDS011;11279;48.364;10.904;2024-03-08T04:13:09;43.03;;;22.45;;
22219;SDS011;11279;48.364;10.904;2024-03-08T04:14:10;38.60;;;21.67;;
22219;SDS011;11279;48.364;10.904;2024-03-08T04:15:10;39.30;;;21.47;;
22219;SDS011;11279;48.364;10.904;2024-03-08T04:16:11;40.27;;;22.53;;
22219;SDS011;11279;48.364;10.904;2024-03-08T04:17:11;40.17;;;21.87;;
22219;SDS011;11279;48.364;10.904;2024-03-08T04:18:12;42.00;;;23.27;;
22219;SDS011;11279;48.364;10.904;2024-03-08T04:19:15;42.50;;;23.45;;
22219;SDS011;11279;48.364;10.904;2024-03-08T04:20:15;38.77;;;21.10;;
22219;SDS011;11279;48.364;10.904;2024-03-08T04:21:17;41.75;;;21.42;;
22219;SDS011;11279;48.364;10.904;2024-03-08T04:22:20;42.13;;;21.55;;
22219;SDS011;11279;48.364;10.904;2024-03-08T04:23:20;38.67;;;21.67;;
22219;SDS011;11279;48.364;10.904;2024-03-08T04:24:21;41.47;;;22.53;;
22219;SDS011;11279;48.364;10.904;2024-03-08T04:25:21;40.73;;;21.97;;
22219;SDS011;11279;48.364;10.904;2024-03-08T04:26:22;42.33;;;22.00;;
22219;SDS011;11279;48.364;10.904;2024-03-08T04:27:22;37.63;;;22.13;;
22219;SDS011;11279;48.364;10.904;2024-03-08T04:28:23;41.83;;;21.73;;
22219;SDS011;11279;48.364;10.904;2024-03-08T04:29:23;39.17;;;21.57;;
22219;SDS011;11279;48.364;10.904;2024-03-08T04:30:24;37.57;;;20.63;;
22219;SDS011;11279;48.364;10.904;2024-03-08T04:31:24;98.30;;;24.27;;
22219;SDS011;11279;48.364;10.904;2024-03-08T04:32:26;41.65;;;22.02;;
22219;SDS011;11279;48.364;10.904;2024-03-08T04:33:29;40.88;;;22.83;;
22219;SDS011;11279;48.364;10.904;2024-03-08T04:34:30;41.23;;;22.43;;
22219;SDS011;11279;48.364;10.904;2024-03-08T04:35:30;39.15;;;21.05;;
22219;SDS011;11279;48.364;10.904;2024-03-08T04:36:31;45.20;;;22.63;;
22219;SDS011;11279;48.364;10.904;2024-03-08T04:37:31;41.03;;;22.27;;
22219;SDS011;11279;48.364;10.904;2024-03-08T04:38:32;38.47;;;21.00;;
22219;SDS011;11279;48.364;10.904;2024-03-08T04:39:32;38.37;;;21.67;;
22219;SDS011;11279;48.364;10.904;2024-03-08T04:40:33;42.27;;;22.77;;
22219;SDS011;11279;48.364;10.904;2024-03-08T04:41:34;39.28;;;21.90;;
22219;SDS011;11279;48.364;10.904;2024-03-08T04:42:34;42.03;;;23.27;;
22219;SDS011;11279;48.364;10.904;2024-03-08T04:43:35;43.57;;;23.10;;
22219;SDS011;11279;48.364;10.904;2024-03-08T04:44:36;75.37;;;22.20;;
22219;SDS011;11279;48.364;10.904;2024-03-08T04:45:40;39.38;;;21.70;;
22219;SDS011;11279;48.364;10.904;2024-03-08T04:46:43;40.60;;;22.77;;
22219;SDS011;11279;48.364;10.904;2024-03-08T04:47:44;43.23;;;22.13;;
22219;SDS011;11279;48.364;10.904;2024-03-08T04:48:44;38.63;;;21.67;;
22219;SDS011;11279;48.364;10.904;2024-03-08T04:49:45;40.67;;;22.67;;
22219;SDS011;11279;48.364;10.904;2024-03-08T04:50:45;38.10;;;21.07;;
22219;SDS011;11279;48.364;10.904;2024-03-08T04:51:45;38.50;;;20.87;;
22219;SDS011;11279;48.364;10.904;2024-03-08T04:52:46;41.17;;;21.40;;
22219;SDS011;11279;48.364;10.904;2024-03-08T04:53:47;40.03;;;22.48;;
22219;SDS011;11279;48.364;10.904;2024-03-08T04:54:48;80.17;;;22.77;;
22219;SDS011;11279;48.364;10.904;2024-03-08T04:55:48;39.17;;;22.43;;
22219;SDS011;11279;48.364;10.904;2024-03-08T04:56:49;37.83;;;21.70;;
22219;SDS011;11279;48.364;10.904;2024-03-08T04:57:49;43.60;;;22.37;;
22219;SDS011;11279;48.364;10.904;2024-03-08T04:58:49;41.93;;;23.27;;
22219;SDS011;11279;48.364;10.904;2024-03-08T04:59:50;276.47;;;27.07;;
22219;SDS011;11279;48.364;10.904;2024-03-08T05:00:50;87.03;;;22.63;;
22219;SDS011;11279;48.364;10.904;2024-03-08T05:01:51;38.23;;;21.30;;
22219;SDS011;11279;48.364;10.904;2024-03-08T05:02:51;40.33;;;21.13;;
22219;SDS011;11279;48.364;10.904;2024-03-08T05:03:53;120.50;;;24.20;;
22219;SDS011;11279;48.364;10.904;2024-03-08T05:04:55;38.28;;;21.23;;
22219;SDS011;11279;48.364;10.904;2024-03-08T05:05:55;43.23;;;21.50;;
22219;SDS011;11279;48.364;10.904;2024-03-08T05:06:56;39.87;;;21.80;;
22219;SDS011;11279;48.364;10.904;2024-03-08T05:07:57;40.17;;;22.07;;
22219;SDS011;11279;48.364;10.904;2024-03-08T05:08:57;39.33;;;23.13;;
22219;SDS011;11279;48.364;10.904;2024-03-08T05:09:58;39.27;;;21.70;;
22219;SDS011;11279;48.364;10.904;2024-03-08T05:10:59;36.90;;;21.08;;
22219;SDS011;11279;48.364;10.904;2024-03-08T05:12:03;38.45;;;21.58;;
22219;SDS011;11279;48.364;10.904;2024-03-08T05:13:04;136.67;;;23.27;;
22219;SDS011;11279;48.364;10.904;2024-03-08T05:14:04;37.70;;;21.60;;
22219;SDS011;11279;48.364;10.904;2024-03-08T05:15:05;37.90;;;21.33;;
22219;SDS011;11279;48.364;10.904;2024-03-08T05:16:07;42.97;;;21.45;;
22219;SDS011;11279;48.364;10.904;2024-03-08T05:17:08;38.43;;;21.53;;
22219;SDS011;11279;48.364;10.904;2024-03-08T05:18:09;93.03;;;23.23;;
22219;SDS011;11279;48.364;10.904;2024-03-08T05:19:11;40.20;;;21.45;;
22219;SDS011;11279;48.364;10.904;2024-03-08T05:20:11;39.03;;;21.63;;
22219;SDS011;11279;48.364;10.904;2024-03-08T05:21:13;40.85;;;21.95;;
22219;SDS011;11279;48.364;10.904;2024-03-08T05:22:13;43.20;;;22.33;;
22219;SDS011;11279;48.364;10.904;2024-03-08T05:23:14;38.33;;;20.80;;
22219;SDS011;11279;48.364;10.904;2024-03-08T05:24:16;42.15;;;22.33;;
22219;SDS011;11279;48.364;10.904;2024-03-08T05:25:17;39.83;;;21.85;;
22219;SDS011;11279;48.364;10.904;2024-03-08T05:26:17;39.73;;;21.77;;
22219;SDS011;11279;48.364;10.904;2024-03-08T05:27:18;37.23;;;21.43;;
22219;SDS011;11279;48.364;10.904;2024-03-08T05:28:18;39.60;;;22.00;;
22219;SDS011;11279;48.364;10.904;2024-03-08T05:29:20;38.05;;;21.65;;
22219;SDS011;11279;48.364;10.904;2024-03-08T05:30:20;38.50;;;21.17;;
22219;SDS011;11279;48.364;10.904;2024-03-08T05:31:21;40.05;;;22.55;;
22219;SDS011;11279;48.364;10.904;2024-03-08T05:32:23;41.58;;;22.05;;
22219;SDS011;11279;48.364;10.904;2024-03-08T05:33:25;106.40;;;24.45;;
22219;SDS011;11279;48.364;10.904;2024-03-08T05:34:25;39.07;;;20.67;;
22219;SDS011;11279;48.364;10.904;2024-03-08T05:35:28;40.72;;;21.35;;
22219;SDS011;11279;48.364;10.904;2024-03-08T05:36:28;36.90;;;20.10;;
22219;SDS011;11279;48.364;10.904;2024-03-08T05:37:29;85.87;;;23.00;;
22219;SDS011;11279;48.364;10.904;2024-03-08T05:38:31;38.63;;;22.10;;
22219;SDS011;11279;48.364;10.904;2024-03-08T05:39:31;37.90;;;20.93;;
22219;SDS011;11279;48.364;10.904;2024-03-08T05:40:32;37.13;;;20.43;;
22219;SDS011;11279;48.364;10.904;2024-03-08T05:41:32;41.00;;;22.13;;
22219;SDS011;11279;48.364;10.904;2024-03-08T05:42:33;666.03;;;37.33;;
22219;SDS011;11279;48.364;10.904;2024-03-08T05:43:33;41.13;;;21.03;;
22219;SDS011;11279;48.364;10.904;2024-03-08T05:44:34;82.97;;;23.37;;
22219;SDS011;11279;48.364;10.904;2024-03-08T05:45:34;37.83;;;20.83;;
22219;SDS011;11279;48.364;10.904;2024-03-08T05:46:35;41.33;;;22.03;;
22219;SDS011;11279;48.364;10.904;2024-03-08T05:47:35;154.17;;;26.33;;
22219;SDS011;11279;48.364;10.904;2024-03-08T05:48:36;41.87;;;21.47;;
22219;SDS011;11279;48.364;10.904;2024-03-08T05:49:37;387.63;;;30.38;;
22219;SDS011;11279;48.364;10.904;2024-03-08T05:50:39;42.17;;;22.23;;
22219;SDS011;11279;48.364;10.904;2024-03-08T05:51:39;39.97;;;22.63;;